createdAt,value
2018-11-25T00:01:08.721Z,18.07
2018-11-25T00:03:36.315Z,18.08
2018-11-25T00:06:04.366Z,18.07
2018-11-25T00:08:31.983Z,18.08
2018-11-25T00:10:59.616Z,18.08
2018-11-25T00:13:27.307Z,18.05
2018-11-25T00:15:54.957Z,18.02
2018-11-25T00:18:22.665Z,18.01
2018-11-25T00:20:50.320Z,18.02
2018-11-25T00:23:17.965Z,18.05
2018-11-25T00:25:45.588Z,18.05
2018-11-25T00:28:13.257Z,18.05
2018-11-25T00:30:40.905Z,18.06
2018-11-25T00:33:08.560Z,18.05
2018-11-25T00:35:36.283Z,18.06
2018-11-25T00:38:03.923Z,18.04
2018-11-25T00:40:31.635Z,18.04
2018-11-25T00:42:59.430Z,18.03
2018-11-25T00:45:27.113Z,18.02
2018-11-25T00:47:54.790Z,18.03
2018-11-25T00:50:22.547Z,18.05
2018-11-25T00:52:50.235Z,18.02
2018-11-25T00:55:17.998Z,18.03
2018-11-25T00:57:45.675Z,18.02
2018-11-25T01:00:17.655Z,18.03
2018-11-25T01:02:45.829Z,18.02
2018-11-25T01:05:13.491Z,18.02
2018-11-25T01:07:41.216Z,18.05
2018-11-25T01:10:16.327Z,18.04
2018-11-25T01:12:44.729Z,18.04
2018-11-25T01:15:13.425Z,18.03
2018-11-25T01:17:41.137Z,18.01
2018-11-25T01:20:13.347Z,18.03
2018-11-25T01:22:40.957Z,18.01
2018-11-25T01:25:09.753Z,18.02
2018-11-25T01:27:37.578Z,18.01
2018-11-25T01:30:10.405Z,18.01
2018-11-25T01:32:38.251Z,18.00
2018-11-25T01:35:07.344Z,18.00
2018-11-25T01:37:35.185Z,18.01
2018-11-25T01:40:03.177Z,18.02
2018-11-25T01:42:30.869Z,18.01
2018-11-25T01:44:58.595Z,18.02
2018-11-25T01:47:26.275Z,18.03
2018-11-25T01:49:53.951Z,17.99
2018-11-25T01:52:21.613Z,17.96
2018-11-25T01:54:49.287Z,17.98
2018-11-25T01:57:17.324Z,17.99
2018-11-25T01:59:45.016Z,18.01
2018-11-25T02:02:12.722Z,18.00
2018-11-25T02:04:40.408Z,18.01
2018-11-25T02:07:08.058Z,18.01
2018-11-25T02:09:35.772Z,17.99
2018-11-25T02:12:03.485Z,17.99
2018-11-25T02:14:31.182Z,17.99
2018-11-25T02:16:58.871Z,17.99
2018-11-25T02:19:26.554Z,17.99
2018-11-25T02:21:54.309Z,17.98
2018-11-25T02:24:22.021Z,17.98
2018-11-25T02:26:49.669Z,17.98
2018-11-25T02:29:17.357Z,17.99
2018-11-25T02:31:45.070Z,18.01
2018-11-25T02:34:12.726Z,17.98
2018-11-25T02:36:40.470Z,17.92
2018-11-25T02:39:08.732Z,17.94
2018-11-25T02:41:36.479Z,17.95
2018-11-25T02:44:04.257Z,17.98
2018-11-25T02:46:31.936Z,17.92
2018-11-25T02:48:59.708Z,17.99
2018-11-25T02:51:27.354Z,17.98
2018-11-25T02:53:55.240Z,17.99
2018-11-25T02:56:23.188Z,17.98
2018-11-25T02:58:50.829Z,17.95
2018-11-25T03:01:19.051Z,17.95
2018-11-25T03:03:46.764Z,17.93
2018-11-25T03:08:48.715Z,17.97
2018-11-25T03:11:16.394Z,17.96
2018-11-25T03:13:44.070Z,17.94
2018-11-25T03:16:11.723Z,18.00
2018-11-25T03:18:39.522Z,18.00
2018-11-25T03:21:07.164Z,17.99
2018-11-25T03:23:34.950Z,17.99
2018-11-25T03:26:02.611Z,17.99
2018-11-25T03:28:30.265Z,17.98
2018-11-25T03:30:57.953Z,17.97
2018-11-25T03:33:25.636Z,17.95
2018-11-25T03:35:53.385Z,17.96
2018-11-25T03:38:21.058Z,17.97
2018-11-25T03:40:48.780Z,17.98
2018-11-25T03:43:16.588Z,17.98
2018-11-25T03:45:44.264Z,17.93
2018-11-25T03:48:11.885Z,17.96
2018-11-25T03:50:39.644Z,17.94
2018-11-25T03:53:07.325Z,17.96
2018-11-25T03:55:35.099Z,17.99
2018-11-25T03:58:02.751Z,17.94
2018-11-25T04:00:30.396Z,17.98
2018-11-25T04:02:58.098Z,17.97
2018-11-25T04:05:25.811Z,17.95
2018-11-25T04:07:53.508Z,17.92
2018-11-25T04:10:21.163Z,17.90
2018-11-25T04:12:48.852Z,17.89
2018-11-25T04:15:17.163Z,17.91
2018-11-25T04:17:45.146Z,17.88
2018-11-25T04:20:17.484Z,17.88
2018-11-25T04:22:45.214Z,17.91
2018-11-25T04:25:13.166Z,17.91
2018-11-25T04:27:40.822Z,17.96
2018-11-25T04:30:13.065Z,17.96
2018-11-25T04:32:40.913Z,17.98
2018-11-25T04:35:09.721Z,17.96
2018-11-25T04:37:37.421Z,18.05
2018-11-25T04:40:06.534Z,18.01
2018-11-25T04:42:34.164Z,18.07
2018-11-25T04:45:01.918Z,18.06
2018-11-25T04:47:29.574Z,18.09
2018-11-25T04:49:57.214Z,18.11
2018-11-25T04:52:24.839Z,18.08
2018-11-25T04:54:52.587Z,18.10
2018-11-25T04:57:20.233Z,18.09
2018-11-25T04:59:47.878Z,18.09
2018-11-25T05:02:15.658Z,18.13
2018-11-25T05:04:43.289Z,18.15
2018-11-25T05:07:10.953Z,18.17
2018-11-25T05:09:38.664Z,18.17
2018-11-25T05:12:06.300Z,18.19
2018-11-25T05:14:33.987Z,18.20
2018-11-25T05:17:01.688Z,18.21
2018-11-25T05:19:29.347Z,18.22
2018-11-25T05:21:57.074Z,18.21
2018-11-25T05:24:24.767Z,18.22
2018-11-25T05:26:52.500Z,18.21
2018-11-25T05:29:20.180Z,18.22
2018-11-25T05:31:47.816Z,18.23
2018-11-25T05:34:15.447Z,18.25
2018-11-25T05:36:43.060Z,18.24
2018-11-25T05:39:10.796Z,18.26
2018-11-25T05:41:38.433Z,18.26
2018-11-25T05:44:06.064Z,18.29
2018-11-25T05:46:33.795Z,18.31
2018-11-25T05:49:01.494Z,18.30
2018-11-25T05:51:29.212Z,18.29
2018-11-25T05:53:56.871Z,18.29
2018-11-25T05:56:24.535Z,18.30
2018-11-25T05:58:52.237Z,18.29
2018-11-25T06:01:19.930Z,18.30
2018-11-25T06:03:47.545Z,18.30
2018-11-25T06:06:15.219Z,18.29
2018-11-25T06:08:42.897Z,18.31
2018-11-25T06:11:10.571Z,18.32
2018-11-25T06:13:38.361Z,18.31
2018-11-25T06:16:06.007Z,18.31
2018-11-25T06:18:33.805Z,18.32
2018-11-25T06:21:01.508Z,18.32
2018-11-25T06:23:29.161Z,18.31
2018-11-25T06:25:56.791Z,18.30
2018-11-25T06:28:24.471Z,18.30
2018-11-25T06:30:52.167Z,18.29
2018-11-25T06:33:19.771Z,18.29
2018-11-25T06:35:47.538Z,18.27
2018-11-25T06:38:15.153Z,18.25
2018-11-25T06:40:42.775Z,18.25
2018-11-25T06:43:10.465Z,18.27
2018-11-25T06:45:38.059Z,18.29
2018-11-25T06:48:06.502Z,18.26
2018-11-25T06:50:34.156Z,18.27
2018-11-25T06:53:01.767Z,18.28
2018-11-25T06:55:29.463Z,18.28
2018-11-25T06:57:57.081Z,18.32
2018-11-25T07:00:25.485Z,18.32
2018-11-25T07:02:53.261Z,18.31
2018-11-25T07:05:20.932Z,18.31
2018-11-25T07:07:48.637Z,18.30
2018-11-25T07:10:17.999Z,18.30
2018-11-25T07:12:45.941Z,18.28
2018-11-25T07:15:15.514Z,18.32
2018-11-25T07:17:43.126Z,18.33
2018-11-25T07:20:14.207Z,18.31
2018-11-25T07:22:41.872Z,18.28
2018-11-25T07:25:17.625Z,18.31
2018-11-25T07:27:45.320Z,18.30
2018-11-25T07:30:17.147Z,18.31
2018-11-25T07:32:44.960Z,18.32
2018-11-25T07:35:12.636Z,18.32
2018-11-25T07:37:40.438Z,18.31
2018-11-25T07:40:12.196Z,18.29
2018-11-25T07:42:39.866Z,18.33
2018-11-25T07:45:13.809Z,18.34
2018-11-25T07:47:41.441Z,18.36
2018-11-25T07:50:11.129Z,18.34
2018-11-25T07:52:38.813Z,18.33
2018-11-25T07:55:24.569Z,18.33
2018-11-25T07:57:53.254Z,18.34
2018-11-25T08:00:21.973Z,18.35
2018-11-25T08:02:49.634Z,18.34
2018-11-25T08:05:20.262Z,18.36
2018-11-25T08:07:47.945Z,18.34
2018-11-25T08:10:15.851Z,18.33
2018-11-25T08:12:43.743Z,18.32
2018-11-25T08:15:13.508Z,18.35
2018-11-25T08:17:41.150Z,18.36
2018-11-25T08:20:11.969Z,18.36
2018-11-25T08:22:39.671Z,18.35
2018-11-25T08:25:08.699Z,18.36
2018-11-25T08:27:36.333Z,18.36
2018-11-25T08:30:06.333Z,18.36
2018-11-25T08:32:34.009Z,18.37
2018-11-25T08:35:01.660Z,18.36
2018-11-25T08:37:29.347Z,18.36
2018-11-25T08:39:57.025Z,18.38
2018-11-25T08:42:24.710Z,18.37
2018-11-25T08:44:52.355Z,18.38
2018-11-25T08:47:20.047Z,18.38
2018-11-25T08:49:47.732Z,18.38
2018-11-25T08:52:15.348Z,18.40
2018-11-25T08:54:42.997Z,18.39
2018-11-25T08:57:10.693Z,18.40
2018-11-25T08:59:38.354Z,18.39
2018-11-25T09:02:06.207Z,18.41
2018-11-25T09:04:33.993Z,18.39
2018-11-25T09:07:01.694Z,18.38
2018-11-25T09:09:30.388Z,18.40
2018-11-25T09:11:57.158Z,18.42
2018-11-25T09:14:24.819Z,18.44
2018-11-25T09:16:52.457Z,18.44
2018-11-25T09:19:20.115Z,18.46
2018-11-25T09:21:47.850Z,18.47
2018-11-25T09:24:15.534Z,18.47
2018-11-25T09:26:43.211Z,18.45
2018-11-25T09:29:10.881Z,18.50
2018-11-25T09:31:38.516Z,18.52
2018-11-25T09:34:06.192Z,18.49
2018-11-25T09:36:33.974Z,18.49
2018-11-25T09:39:01.606Z,18.50
2018-11-25T09:41:29.278Z,18.52
2018-11-25T09:43:57.053Z,18.53
2018-11-25T09:46:24.680Z,18.53
2018-11-25T09:48:52.310Z,18.53
2018-11-25T09:51:19.996Z,18.55
2018-11-25T09:53:47.654Z,18.53
2018-11-25T09:56:15.312Z,18.54
2018-11-25T09:58:43.005Z,18.56
2018-11-25T10:01:10.675Z,18.57
2018-11-25T10:03:38.353Z,18.57
2018-11-25T10:06:06.438Z,18.58
2018-11-25T10:08:34.134Z,18.60
2018-11-25T10:11:01.817Z,18.58
2018-11-25T10:13:29.459Z,18.58
2018-11-25T10:15:57.109Z,18.59
2018-11-25T10:18:24.747Z,18.58
2018-11-25T10:20:52.430Z,18.55
2018-11-25T10:23:20.129Z,18.58
2018-11-25T10:25:47.767Z,18.58
2018-11-25T10:28:15.474Z,18.58
2018-11-25T10:30:43.270Z,18.58
2018-11-25T10:33:11.002Z,18.59
2018-11-25T10:35:38.618Z,18.62
2018-11-25T10:38:06.251Z,18.63
2018-11-25T10:40:33.911Z,18.63
2018-11-25T10:43:01.574Z,18.66
2018-11-25T10:45:29.382Z,18.67
2018-11-25T10:47:57.652Z,18.68
2018-11-25T10:50:25.288Z,18.68
2018-11-25T10:52:52.962Z,18.67
2018-11-25T10:55:21.307Z,18.69
2018-11-25T10:57:50.014Z,18.71
2018-11-25T11:00:27.407Z,18.72
2018-11-25T11:03:00.561Z,18.72
2018-11-25T11:05:33.774Z,18.74
2018-11-25T11:08:01.431Z,18.74
2018-11-25T11:10:29.059Z,18.76
2018-11-25T11:12:56.699Z,18.76
2018-11-25T11:15:24.305Z,18.79
2018-11-25T11:17:52.022Z,18.81
2018-11-25T11:20:19.672Z,18.83
2018-11-25T11:22:47.350Z,18.79
2018-11-25T11:25:15.047Z,18.79
2018-11-25T11:27:42.693Z,18.79
2018-11-25T11:30:11.049Z,18.79
2018-11-25T11:39:43.041Z,18.75
2018-11-25T11:42:10.706Z,18.78
2018-11-25T11:44:38.353Z,18.80
2018-11-25T11:47:06.086Z,18.79
2018-11-25T11:49:33.732Z,18.79
2018-11-25T11:52:01.393Z,18.77
2018-11-25T11:54:29.180Z,18.77
2018-11-25T11:56:56.822Z,18.76
2018-11-25T11:59:24.442Z,18.75
2018-11-25T12:01:52.157Z,18.76
2018-11-25T12:04:19.798Z,18.74
2018-11-25T12:06:47.493Z,18.76
2018-11-25T12:09:15.235Z,18.77
2018-11-25T12:11:42.895Z,18.78
2018-11-25T12:14:10.625Z,18.75
2018-11-25T12:16:38.327Z,18.75
2018-11-25T12:19:06.073Z,18.77
2018-11-25T12:21:33.730Z,18.75
2018-11-25T12:24:01.383Z,18.77
2018-11-25T12:26:29.136Z,18.76
2018-11-25T12:28:56.899Z,18.77
2018-11-25T12:31:24.747Z,18.76
2018-11-25T12:33:52.804Z,18.78
2018-11-25T12:36:20.517Z,18.75
2018-11-25T12:38:48.261Z,18.75
2018-11-25T12:41:15.914Z,18.75
2018-11-25T12:43:43.573Z,18.76
2018-11-25T12:46:11.393Z,18.75
2018-11-25T12:48:39.067Z,18.73
2018-11-25T12:51:06.823Z,18.70
2018-11-25T12:53:34.489Z,18.70
2018-11-25T12:56:02.114Z,18.67
2018-11-25T12:58:29.832Z,18.66
2018-11-25T13:00:57.522Z,18.67
2018-11-25T13:03:25.186Z,18.66
2018-11-25T13:05:52.859Z,18.66
2018-11-25T13:08:20.526Z,18.64
2018-11-25T13:10:48.184Z,18.64
2018-11-25T13:13:15.879Z,18.63
2018-11-25T13:15:43.533Z,18.64
2018-11-25T13:18:11.190Z,18.64
2018-11-25T13:20:38.820Z,18.67
2018-11-25T13:23:06.787Z,18.66
2018-11-25T13:25:34.418Z,18.67
2018-11-25T13:28:02.101Z,18.66
2018-11-25T13:30:30.903Z,18.66
2018-11-25T13:32:59.963Z,18.66
2018-11-25T13:35:29.242Z,18.68
2018-11-25T13:37:56.975Z,18.66
2018-11-25T13:40:24.630Z,18.68
2018-11-25T13:42:52.269Z,18.66
2018-11-25T13:45:20.721Z,18.65
2018-11-25T13:47:48.407Z,18.66
2018-11-25T13:50:16.054Z,18.66
2018-11-25T13:52:43.706Z,18.66
2018-11-25T13:55:15.924Z,18.65
2018-11-25T13:57:43.641Z,18.62
2018-11-25T14:00:29.010Z,18.63
2018-11-25T14:02:56.666Z,18.64
2018-11-25T14:05:24.339Z,18.63
2018-11-25T14:07:51.986Z,18.64
2018-11-25T14:10:21.967Z,18.64
2018-11-25T14:12:49.721Z,18.66
2018-11-25T14:15:17.368Z,18.64
2018-11-25T14:17:44.990Z,18.65
2018-11-25T14:20:12.696Z,18.65
2018-11-25T14:22:40.301Z,18.64
2018-11-25T14:25:10.058Z,18.62
2018-11-25T14:27:37.675Z,18.63
2018-11-25T14:30:16.227Z,18.63
2018-11-25T14:32:43.909Z,18.62
2018-11-25T14:35:13.392Z,18.57
2018-11-25T14:37:41.052Z,18.60
2018-11-25T14:40:10.575Z,18.62
2018-11-25T14:42:38.320Z,18.59
2018-11-25T14:45:08.539Z,18.61
2018-11-25T14:47:36.229Z,18.63
2018-11-25T14:50:04.671Z,18.63
2018-11-25T14:52:32.446Z,18.62
2018-11-25T14:55:00.130Z,18.64
2018-11-25T14:57:27.848Z,18.63
2018-11-25T14:59:55.531Z,18.62
2018-11-25T15:02:23.363Z,18.64
2018-11-25T15:04:51.017Z,18.63
2018-11-25T15:07:18.701Z,18.62
2018-11-25T15:09:46.361Z,18.63
2018-11-25T15:12:14.021Z,18.59
2018-11-25T15:14:41.752Z,18.58
2018-11-25T15:17:09.419Z,18.57
2018-11-25T15:19:37.070Z,18.57
2018-11-25T15:22:04.763Z,18.54
2018-11-25T15:24:32.494Z,18.54
2018-11-25T15:27:00.212Z,18.51
2018-11-25T15:29:27.890Z,18.53
2018-11-25T15:31:55.694Z,18.54
2018-11-25T15:34:23.465Z,18.55
2018-11-25T15:36:51.128Z,18.56
2018-11-25T15:39:18.864Z,18.51
2018-11-25T15:41:53.183Z,18.52
2018-11-25T15:44:20.848Z,18.49
2018-11-25T15:46:48.508Z,18.49
2018-11-25T15:49:16.186Z,18.48
2018-11-25T15:51:43.847Z,18.48
2018-11-25T15:54:11.561Z,18.50
2018-11-25T15:56:39.251Z,18.49
2018-11-25T15:59:06.996Z,18.48
2018-11-25T16:01:34.663Z,18.46
2018-11-25T16:04:02.339Z,18.49
2018-11-25T16:06:32.573Z,18.46
2018-11-25T16:09:00.206Z,18.47
2018-11-25T16:11:27.945Z,18.48
2018-11-25T16:13:55.581Z,18.47
2018-11-25T16:16:23.312Z,18.48
2018-11-25T16:18:51.369Z,18.47
2018-11-25T16:21:19.018Z,18.47
2018-11-25T16:23:46.798Z,18.46
2018-11-25T16:26:21.417Z,18.47
2018-11-25T16:28:51.592Z,18.47
2018-11-25T16:31:19.240Z,18.46
2018-11-25T16:33:47.030Z,18.49
2018-11-25T16:36:14.711Z,18.48
2018-11-25T16:38:42.333Z,18.49
2018-11-25T16:41:09.985Z,18.47
2018-11-25T16:43:37.617Z,18.48
2018-11-25T16:46:05.326Z,18.45
2018-11-25T16:48:33.042Z,18.44
2018-11-25T16:51:00.698Z,18.46
2018-11-25T16:53:28.400Z,18.47
2018-11-25T16:55:55.990Z,18.47
2018-11-25T16:58:23.717Z,18.47
2018-11-25T17:00:51.324Z,18.49
2018-11-25T17:03:19.002Z,18.48
2018-11-25T17:05:49.328Z,18.46
2018-11-25T17:08:36.241Z,18.46
2018-11-25T17:11:03.920Z,18.45
2018-11-25T17:13:31.679Z,18.46
2018-11-25T17:15:59.358Z,18.47
2018-11-25T17:18:27.041Z,18.45
2018-11-25T17:20:54.763Z,18.43
2018-11-25T17:23:22.482Z,18.43
2018-11-25T17:25:50.226Z,18.44
2018-11-25T17:28:17.878Z,18.44
2018-11-25T17:30:45.582Z,18.45
2018-11-25T17:33:13.197Z,18.46
2018-11-25T17:35:40.889Z,18.46
2018-11-25T17:38:08.591Z,18.46
2018-11-25T17:40:36.248Z,18.45
2018-11-25T17:43:04.008Z,18.46
2018-11-25T17:45:31.640Z,18.45
2018-11-25T17:47:59.298Z,18.44
2018-11-25T17:50:28.461Z,18.46
2018-11-25T17:52:56.187Z,18.47
2018-11-25T17:55:26.203Z,18.43
2018-11-25T17:57:53.888Z,18.46
2018-11-25T18:00:28.977Z,18.46
2018-11-25T18:02:56.734Z,18.46
2018-11-25T18:05:24.390Z,18.45
2018-11-25T18:07:52.050Z,18.47
2018-11-25T18:10:19.706Z,18.49
2018-11-25T18:12:47.330Z,18.47
2018-11-25T18:15:16.677Z,18.46
2018-11-25T18:18:01.396Z,18.47
2018-11-25T18:20:33.345Z,18.45
2018-11-25T18:23:01.006Z,18.46
2018-11-25T18:25:28.649Z,18.44
2018-11-25T18:28:00.532Z,18.45
2018-11-25T18:30:24.173Z,18.46
2018-11-25T18:32:51.818Z,18.46
2018-11-25T18:35:19.503Z,18.45
2018-11-25T18:37:47.203Z,18.44
2018-11-25T18:40:14.854Z,18.44
2018-11-25T18:42:43.373Z,18.44
2018-11-25T18:45:12.478Z,18.44
2018-11-25T18:47:40.098Z,18.45
2018-11-25T18:50:12.172Z,18.44
2018-11-25T18:52:40.058Z,18.44
2018-11-25T18:55:06.588Z,18.40
2018-11-25T18:57:34.219Z,18.40
2018-11-25T19:00:01.866Z,18.39
2018-11-25T19:02:41.949Z,18.40
2018-11-25T19:05:09.821Z,18.41
2018-11-25T19:07:37.491Z,18.38
2018-11-25T19:10:10.145Z,18.37
2018-11-25T19:12:44.004Z,18.38
2018-11-25T19:15:07.441Z,18.39
2018-11-25T19:17:35.105Z,18.39
2018-11-25T19:20:03.714Z,18.41
2018-11-25T19:22:31.386Z,18.39
2018-11-25T19:24:59.003Z,18.38
2018-11-25T19:27:26.677Z,18.40
2018-11-25T19:29:54.297Z,18.39
2018-11-25T19:32:21.966Z,18.37
2018-11-25T19:34:49.634Z,18.37
2018-11-25T19:37:17.283Z,18.34
2018-11-25T19:39:45.042Z,18.36
2018-11-25T19:42:12.679Z,18.32
2018-11-25T19:44:40.291Z,18.34
2018-11-25T19:47:07.938Z,18.34
2018-11-25T19:49:35.611Z,18.33
2018-11-25T19:52:03.221Z,18.33
2018-11-25T19:54:30.846Z,18.30
2018-11-25T19:56:58.617Z,18.33
2018-11-25T19:59:26.261Z,18.36
2018-11-25T20:01:54.086Z,18.38
2018-11-25T20:04:21.716Z,18.34
2018-11-25T20:06:49.517Z,18.32
2018-11-25T20:09:17.147Z,18.30
2018-11-25T20:11:44.802Z,18.30
2018-11-25T20:14:12.490Z,18.30
2018-11-25T20:16:45.641Z,18.31
2018-11-25T20:19:13.298Z,18.32
2018-11-25T20:21:46.451Z,18.30
2018-11-25T20:24:14.092Z,18.26
2018-11-25T20:26:47.349Z,18.25
2018-11-25T20:29:14.975Z,18.24
2018-11-25T20:31:42.729Z,18.22
2018-11-25T20:34:10.351Z,18.18
2018-11-25T20:36:37.956Z,18.18
2018-11-25T20:39:13.683Z,18.18
2018-11-25T20:41:41.364Z,18.16
2018-11-25T20:44:09.031Z,18.12
2018-11-25T20:46:42.379Z,18.11
2018-11-25T20:49:10.090Z,18.11
2018-11-25T20:51:43.440Z,18.10
2018-11-25T20:54:11.083Z,18.08
2018-11-25T20:56:38.722Z,18.10
2018-11-25T20:59:06.525Z,18.08
2018-11-25T21:01:34.203Z,18.06
2018-11-25T21:04:01.798Z,18.09
2018-11-25T21:06:29.615Z,18.06
2018-11-25T21:08:57.250Z,18.05
2018-11-25T21:11:24.926Z,18.05
2018-11-25T21:13:52.685Z,18.02
2018-11-25T21:16:20.328Z,18.03
2018-11-25T21:18:47.952Z,18.01
2018-11-25T21:21:15.622Z,18.03
2018-11-25T21:23:43.289Z,18.02
2018-11-25T21:26:10.942Z,18.01
2018-11-25T21:28:38.565Z,18.01
2018-11-25T21:31:06.196Z,17.95
2018-11-25T21:33:33.789Z,17.89
2018-11-25T21:36:01.535Z,17.94
2018-11-25T21:38:29.146Z,17.95
2018-11-25T21:40:56.810Z,17.95
2018-11-25T21:43:24.481Z,17.94
2018-11-25T21:45:52.168Z,17.94
2018-11-25T21:48:19.852Z,17.92
2018-11-25T21:50:47.492Z,17.90
2018-11-25T21:53:15.214Z,17.90
2018-11-25T21:55:42.867Z,17.90
2018-11-25T21:58:10.470Z,17.86
2018-11-25T22:00:38.098Z,17.89
2018-11-25T22:03:05.810Z,17.89
2018-11-25T22:05:33.377Z,17.90
2018-11-25T22:08:01.054Z,17.87
2018-11-25T22:10:28.672Z,17.86
2018-11-25T22:12:56.361Z,17.86
2018-11-25T22:15:24.114Z,17.86
2018-11-25T22:17:51.720Z,17.85
2018-11-25T22:20:19.355Z,17.85
2018-11-25T22:22:47.021Z,17.86
2018-11-25T22:25:16.828Z,17.89
2018-11-25T22:27:44.570Z,17.88
2018-11-25T22:30:14.342Z,17.89
2018-11-25T22:32:42.030Z,17.89
2018-11-25T22:35:11.026Z,17.86
2018-11-25T22:37:38.676Z,17.86
2018-11-25T22:40:08.135Z,17.89
2018-11-25T22:42:35.892Z,17.88
2018-11-25T22:45:03.821Z,17.86
2018-11-25T22:47:31.444Z,17.87
2018-11-25T22:49:59.095Z,17.89
2018-11-25T22:52:26.736Z,17.89
2018-11-25T22:54:54.382Z,17.86
2018-11-25T22:57:22.106Z,17.87
2018-11-25T22:59:49.722Z,17.87
2018-11-25T23:02:17.405Z,17.89
2018-11-25T23:04:56.325Z,17.87
2018-11-25T23:07:23.967Z,17.89
2018-11-25T23:09:51.601Z,17.90
2018-11-25T23:12:19.276Z,17.88
2018-11-25T23:14:46.899Z,17.87
2018-11-25T23:17:14.538Z,17.85
2018-11-25T23:19:42.315Z,17.86
2018-11-25T23:22:09.924Z,17.87
2018-11-25T23:24:37.522Z,17.89
2018-11-25T23:27:05.218Z,17.88
2018-11-25T23:29:32.903Z,17.85
2018-11-25T23:32:00.564Z,17.84
2018-11-25T23:34:28.177Z,17.86
2018-11-25T23:36:55.831Z,17.86
2018-11-25T23:39:23.636Z,17.86
2018-11-25T23:41:51.255Z,17.86
2018-11-25T23:44:18.873Z,17.86
2018-11-25T23:46:46.555Z,17.84
2018-11-25T23:49:14.223Z,17.81
2018-11-25T23:51:41.993Z,17.84
2018-11-25T23:54:09.654Z,17.86
2018-11-25T23:56:37.282Z,17.84
2018-11-25T23:59:05.445Z,17.84
